Terminal Aerodrome Forecast
Issued by NWS

Home | Current Version | Previous Version | Text Only | Print | Product List | Glossary On
Versions: 1 2 3 4 5 6 7 8 9 10 11 12 13
143
FTUS45 KRIW 272330
TAFBPI
TAF
KBPI 272330Z 2800/2824 34010KT P6SM VCSH SCT025 BKN040
     FM280400 35012G18KT 5SM -RASN SCT012 OVC025
     FM280900 35012G18KT P6SM SCT025 BKN040
     FM281800 35015G25KT P6SM BKN040=

USA.gov is the U.S. government's official web portal to all federal, state and local government web resources and services.